Aeroporto :
LOGIN :

Iscrizione | Disclaimer

   EN    FR    IT 

 










Sommario :    VFR   VFR Marginale   IFR   IFR Intensivo   IFR Molto Intensivo
Visibilità : 
Base nubi : 
>= 8 km
>= 3000ft
5 / 8 km
1000 / 3000 ft
1500m / 5 km
500 / 1000 ft
800 / 1500m
200 / 500 ft
< 800m
< 200 ft
Simboli :   Temporali  Nebbia  Neve Forte  Precipitazioni Forti  Vento > 20 kt
SIGMETs :   Varie  Temporali  Ghiacco  Turbolenza  Onda orograficha  Ceneri Vulcaniche







- Altitudine del aeroporto : 1475 ft


LSZC - Buochs Stans

ULTIMO METAR :
  • 200820Z AUTO 05005KT 9999 OVC070 //////TCU 19/14 Q1015

METARs OBSOLETI :
  • 200750Z AUTO 07004KT 9999 NSC 19/14 Q1015
  • 200720Z AUTO 09005KT 9999 SCT090 //////TCU 19/14 Q1015
  • 200650Z AUTO VRB01KT 9999 //////TCU 19/14 Q1015
  • 200620Z AUTO VRB03KT 9999 NCD 18/14 Q1015
  • 200550Z AUTO VRB02KT 9999 NSC 17/14 Q1015

TAF TAF LSZC
Valido dal 20 a 09 ore il 20 a 18 ore UTC


200825Z 2009/2018 08005KT 9999 FEW050TCU BKN100
TEMPO 2009/2018 SHRA
PROB30
TEMPO 2014/2018 27012G25KT 4000 TSRA SCT050CB
Nessun NOTAM noto per questo aeroporto.



MetMap, La meteo Aeronautica in un colpo d'occhio ! - Copyright ORBIFLY Dicembre 2007 - Disclaimer

ORBIFLY MET'MAP TEAM :

Programmazione e sviluppo : Alexandra Zaïnal
Concezione e sviluppo : Baudouin d'Aumeries
Co-Programmazione e sviluppo : Marc-Olivier Méhu
Supporto tecnico e logistico : Manuel Goepfert
Aiuto per la traduzione : Arnaldo La Scala

Contatto : metmap@orbifly.com




FONTI E CREDITI :

   NOAA